sensor_id;sensor_type;location;lat;lon;timestamp;temperature;humidity
29431;DHT22;16404;49.902;10.074;2023-05-10T00:02:15;19.90;64.30
29431;DHT22;16404;49.902;10.074;2023-05-10T00:04:59;19.90;64.40
29431;DHT22;16404;49.902;10.074;2023-05-10T00:07:44;19.90;64.50
29431;DHT22;16404;49.902;10.074;2023-05-10T00:10:29;19.90;64.60
29431;DHT22;16404;49.902;10.074;2023-05-10T00:13:13;19.90;64.70
29431;DHT22;16404;49.902;10.074;2023-05-10T00:15:58;19.80;64.60
29431;DHT22;16404;49.902;10.074;2023-05-10T00:18:43;19.80;64.80
29431;DHT22;16404;49.902;10.074;2023-05-10T00:21:27;19.80;64.90
29431;DHT22;16404;49.902;10.074;2023-05-10T00:24:12;19.80;65.30
29431;DHT22;16404;49.902;10.074;2023-05-10T00:26:57;19.70;65.70
29431;DHT22;16404;49.902;10.074;2023-05-10T00:29:41;19.50;66.00
29431;DHT22;16404;49.902;10.074;2023-05-10T00:32:26;19.40;66.20
29431;DHT22;16404;49.902;10.074;2023-05-10T00:35:11;19.40;66.90
29431;DHT22;16404;49.902;10.074;2023-05-10T00:37:55;19.50;66.80
29431;DHT22;16404;49.902;10.074;2023-05-10T00:40:40;19.50;66.60
29431;DHT22;16404;49.902;10.074;2023-05-10T00:43:32;19.40;66.90
29431;DHT22;16404;49.902;10.074;2023-05-10T00:46:17;19.40;67.20
29431;DHT22;16404;49.902;10.074;2023-05-10T00:49:02;19.30;67.50
29431;DHT22;16404;49.902;10.074;2023-05-10T00:51:48;19.20;67.70
29431;DHT22;16404;49.902;10.074;2023-05-10T00:54:32;19.00;68.10
29431;DHT22;16404;49.902;10.074;2023-05-10T00:57:17;19.10;68.30
29431;DHT22;16404;49.902;10.074;2023-05-10T01:00:02;19.10;68.20
29431;DHT22;16404;49.902;10.074;2023-05-10T01:02:47;19.00;68.40
29431;DHT22;16404;49.902;10.074;2023-05-10T01:05:32;19.00;68.80
29431;DHT22;16404;49.902;10.074;2023-05-10T01:08:16;18.90;68.80
29431;DHT22;16404;49.902;10.074;2023-05-10T01:11:01;19.00;68.90
29431;DHT22;16404;49.902;10.074;2023-05-10T01:13:52;19.10;68.70
29431;DHT22;16404;49.902;10.074;2023-05-10T01:16:40;19.10;68.80
29431;DHT22;16404;49.902;10.074;2023-05-10T01:19:29;19.20;68.70
29431;DHT22;16404;49.902;10.074;2023-05-10T01:25:37;19.10;68.90
29431;DHT22;16404;49.902;10.074;2023-05-10T01:44:17;19.30;68.70
29431;DHT22;16404;49.902;10.074;2023-05-10T01:47:09;19.30;68.30
29431;DHT22;16404;49.902;10.074;2023-05-10T01:49:55;19.30;68.60
29431;DHT22;16404;49.902;10.074;2023-05-10T01:52:56;19.30;68.60
29431;DHT22;16404;49.902;10.074;2023-05-10T01:55:52;19.10;68.50
29431;DHT22;16404;49.902;10.074;2023-05-10T01:58:39;19.00;69.10
29431;DHT22;16404;49.902;10.074;2023-05-10T02:01:26;18.90;69.10
29431;DHT22;16404;49.902;10.074;2023-05-10T02:04:14;18.70;69.60
29431;DHT22;16404;49.902;10.074;2023-05-10T02:06:59;18.60;69.80
29431;DHT22;16404;49.902;10.074;2023-05-10T02:09:45;18.50;69.80
29431;DHT22;16404;49.902;10.074;2023-05-10T02:12:36;18.40;70.70
29431;DHT22;16404;49.902;10.074;2023-05-10T02:15:23;18.20;70.00
29431;DHT22;16404;49.902;10.074;2023-05-10T02:18:11;18.10;70.20
29431;DHT22;16404;49.902;10.074;2023-05-10T02:20:56;18.10;70.10
29431;DHT22;16404;49.902;10.074;2023-05-10T02:23:43;18.00;70.10
29431;DHT22;16404;49.902;10.074;2023-05-10T02:26:29;17.90;70.20
29431;DHT22;16404;49.902;10.074;2023-05-10T02:29:14;17.80;70.00
29431;DHT22;16404;49.902;10.074;2023-05-10T02:32:00;17.80;69.90
29431;DHT22;16404;49.902;10.074;2023-05-10T02:34:45;17.70;69.70
29431;DHT22;16404;49.902;10.074;2023-05-10T02:37:30;17.80;69.20
29431;DHT22;16404;49.902;10.074;2023-05-10T02:40:15;17.70;69.00
29431;DHT22;16404;49.902;10.074;2023-05-10T02:43:02;17.80;68.90
29431;DHT22;16404;49.902;10.074;2023-05-10T02:45:49;17.70;68.70
29431;DHT22;16404;49.902;10.074;2023-05-10T02:48:34;17.70;68.90
29431;DHT22;16404;49.902;10.074;2023-05-10T02:51:19;17.70;68.40
29431;DHT22;16404;49.902;10.074;2023-05-10T02:54:15;17.70;68.50
29431;DHT22;16404;49.902;10.074;2023-05-10T02:57:04;17.70;68.80
29431;DHT22;16404;49.902;10.074;2023-05-10T02:59:50;17.70;68.70
29431;DHT22;16404;49.902;10.074;2023-05-10T03:02:34;17.70;68.70
29431;DHT22;16404;49.902;10.074;2023-05-10T03:05:20;17.70;68.90
29431;DHT22;16404;49.902;10.074;2023-05-10T03:08:05;17.60;68.90
29431;DHT22;16404;49.902;10.074;2023-05-10T03:20:47;17.30;69.50
29431;DHT22;16404;49.902;10.074;2023-05-10T03:23:40;17.30;69.40
29431;DHT22;16404;49.902;10.074;2023-05-10T03:26:27;17.20;69.70
29431;DHT22;16404;49.902;10.074;2023-05-10T03:29:20;17.20;69.70
29431;DHT22;16404;49.902;10.074;2023-05-10T03:32:06;17.10;69.70
29431;DHT22;16404;49.902;10.074;2023-05-10T03:34:50;17.10;70.00
29431;DHT22;16404;49.902;10.074;2023-05-10T03:37:35;17.10;70.10
29431;DHT22;16404;49.902;10.074;2023-05-10T03:40:19;17.10;70.30
29431;DHT22;16404;49.902;10.074;2023-05-10T03:43:04;17.00;70.40
29431;DHT22;16404;49.902;10.074;2023-05-10T03:45:49;17.00;70.60
29431;DHT22;16404;49.902;10.074;2023-05-10T03:48:34;17.00;70.50
29431;DHT22;16404;49.902;10.074;2023-05-10T03:51:19;16.90;70.50
29431;DHT22;16404;49.902;10.074;2023-05-10T03:54:03;16.90;70.50
29431;DHT22;16404;49.902;10.074;2023-05-10T03:56:48;16.90;70.50
29431;DHT22;16404;49.902;10.074;2023-05-10T03:59:34;16.80;70.60
29431;DHT22;16404;49.902;10.074;2023-05-10T04:02:18;16.70;71.00
29431;DHT22;16404;49.902;10.074;2023-05-10T04:05:03;16.60;71.20
29431;DHT22;16404;49.902;10.074;2023-05-10T04:07:48;16.60;71.30
29431;DHT22;16404;49.902;10.074;2023-05-10T04:10:34;16.50;71.40
29431;DHT22;16404;49.902;10.074;2023-05-10T04:13:18;16.60;71.50
29431;DHT22;16404;49.902;10.074;2023-05-10T04:16:03;16.50;71.60
29431;DHT22;16404;49.902;10.074;2023-05-10T04:18:47;16.50;71.80
29431;DHT22;16404;49.902;10.074;2023-05-10T04:21:32;16.50;72.00
29431;DHT22;16404;49.902;10.074;2023-05-10T04:24:16;16.40;72.00
29431;DHT22;16404;49.902;10.074;2023-05-10T04:27:01;16.40;72.40
29431;DHT22;16404;49.902;10.074;2023-05-10T04:29:46;16.40;72.70
29431;DHT22;16404;49.902;10.074;2023-05-10T04:32:30;16.40;72.90
29431;DHT22;16404;49.902;10.074;2023-05-10T04:35:15;16.40;72.90
29431;DHT22;16404;49.902;10.074;2023-05-10T04:38:00;16.40;73.00
29431;DHT22;16404;49.902;10.074;2023-05-10T04:40:44;16.40;73.00
29431;DHT22;16404;49.902;10.074;2023-05-10T04:43:29;16.50;73.10
29431;DHT22;16404;49.902;10.074;2023-05-10T04:46:14;16.50;73.00
29431;DHT22;16404;49.902;10.074;2023-05-10T04:48:58;16.50;72.90
29431;DHT22;16404;49.902;10.074;2023-05-10T04:51:43;16.40;73.10
29431;DHT22;16404;49.902;10.074;2023-05-10T04:54:27;16.40;73.30
29431;DHT22;16404;49.902;10.074;2023-05-10T04:57:12;16.50;73.30
29431;DHT22;16404;49.902;10.074;2023-05-10T04:59:57;16.50;73.30
29431;DHT22;16404;49.902;10.074;2023-05-10T05:02:45;16.50;73.30
29431;DHT22;16404;49.902;10.074;2023-05-10T05:05:29;16.60;73.30
29431;DHT22;16404;49.902;10.074;2023-05-10T05:08:14;16.60;73.20
29431;DHT22;16404;49.902;10.074;2023-05-10T05:10:59;16.70;73.00
29431;DHT22;16404;49.902;10.074;2023-05-10T05:13:43;16.80;72.90
29431;DHT22;16404;49.902;10.074;2023-05-10T05:16:30;16.80;72.80
29431;DHT22;16404;49.902;10.074;2023-05-10T05:19:15;16.90;72.90
29431;DHT22;16404;49.902;10.074;2023-05-10T05:22:00;17.00;72.60
29431;DHT22;16404;49.902;10.074;2023-05-10T05:24:44;17.00;72.60
29431;DHT22;16404;49.902;10.074;2023-05-10T05:27:29;17.00;72.60
29431;DHT22;16404;49.902;10.074;2023-05-10T05:30:13;17.10;72.70
29431;DHT22;16404;49.902;10.074;2023-05-10T05:32:58;17.20;72.70
29431;DHT22;16404;49.902;10.074;2023-05-10T05:35:42;17.20;72.40
29431;DHT22;16404;49.902;10.074;2023-05-10T05:38:31;17.30;72.10
29431;DHT22;16404;49.902;10.074;2023-05-10T05:41:16;17.30;71.90
29431;DHT22;16404;49.902;10.074;2023-05-10T05:44:00;17.40;72.10
29431;DHT22;16404;49.902;10.074;2023-05-10T05:46:45;17.60;71.80
29431;DHT22;16404;49.902;10.074;2023-05-10T05:49:29;17.60;71.30
29431;DHT22;16404;49.902;10.074;2023-05-10T05:52:14;17.70;70.90
29431;DHT22;16404;49.902;10.074;2023-05-10T05:54:59;17.80;70.30
29431;DHT22;16404;49.902;10.074;2023-05-10T05:57:44;17.70;70.20
29431;DHT22;16404;49.902;10.074;2023-05-10T06:00:29;17.70;70.20
29431;DHT22;16404;49.902;10.074;2023-05-10T06:03:13;17.80;70.20
29431;DHT22;16404;49.902;10.074;2023-05-10T06:05:58;17.80;70.40
29431;DHT22;16404;49.902;10.074;2023-05-10T06:08:42;17.90;70.00
29431;DHT22;16404;49.902;10.074;2023-05-10T06:11:27;17.90;69.50
29431;DHT22;16404;49.902;10.074;2023-05-10T06:14:11;18.00;69.30
29431;DHT22;16404;49.902;10.074;2023-05-10T06:16:56;18.00;69.10
29431;DHT22;16404;49.902;10.074;2023-05-10T06:19:41;18.00;69.00
29431;DHT22;16404;49.902;10.074;2023-05-10T06:22:28;18.10;69.00
29431;DHT22;16404;49.902;10.074;2023-05-10T06:25:13;18.20;68.90
29431;DHT22;16404;49.902;10.074;2023-05-10T06:27:58;18.30;68.60
29431;DHT22;16404;49.902;10.074;2023-05-10T06:30:43;18.30;68.30
29431;DHT22;16404;49.902;10.074;2023-05-10T06:33:27;18.30;67.90
29431;DHT22;16404;49.902;10.074;2023-05-10T06:36:12;18.40;67.90
29431;DHT22;16404;49.902;10.074;2023-05-10T06:38:58;18.40;67.60
29431;DHT22;16404;49.902;10.074;2023-05-10T06:41:42;18.40;67.50
29431;DHT22;16404;49.902;10.074;2023-05-10T06:44:27;18.40;67.20
29431;DHT22;16404;49.902;10.074;2023-05-10T06:47:12;18.40;67.10
29431;DHT22;16404;49.902;10.074;2023-05-10T06:49:56;18.30;67.20
29431;DHT22;16404;49.902;10.074;2023-05-10T06:52:41;18.40;67.60
29431;DHT22;16404;49.902;10.074;2023-05-10T06:55:26;18.40;67.30
29431;DHT22;16404;49.902;10.074;2023-05-10T06:58:10;18.50;67.40
29431;DHT22;16404;49.902;10.074;2023-05-10T07:01:02;18.70;66.80
29431;DHT22;16404;49.902;10.074;2023-05-10T07:03:46;18.70;66.50
29431;DHT22;16404;49.902;10.074;2023-05-10T07:06:31;18.90;66.20
29431;DHT22;16404;49.902;10.074;2023-05-10T07:09:16;18.90;65.50
29431;DHT22;16404;49.902;10.074;2023-05-10T07:12:00;19.00;65.30
29431;DHT22;16404;49.902;10.074;2023-05-10T07:14:45;18.90;65.00
29431;DHT22;16404;49.902;10.074;2023-05-10T07:17:30;19.00;64.90
29431;DHT22;16404;49.902;10.074;2023-05-10T07:20:15;19.00;64.00
29431;DHT22;16404;49.902;10.074;2023-05-10T07:22:59;19.00;64.10
29431;DHT22;16404;49.902;10.074;2023-05-10T07:25:48;19.00;64.10
29431;DHT22;16404;49.902;10.074;2023-05-10T07:28:33;19.00;64.20
29431;DHT22;16404;49.902;10.074;2023-05-10T07:31:17;19.00;63.80
29431;DHT22;16404;49.902;10.074;2023-05-10T07:34:02;19.10;64.10
29431;DHT22;16404;49.902;10.074;2023-05-10T07:36:47;19.30;63.90
29431;DHT22;16404;49.902;10.074;2023-05-10T07:39:31;19.30;63.30
29431;DHT22;16404;49.902;10.074;2023-05-10T07:42:16;19.30;63.10
29431;DHT22;16404;49.902;10.074;2023-05-10T07:45:01;19.30;63.10
29431;DHT22;16404;49.902;10.074;2023-05-10T07:47:45;19.40;62.80
29431;DHT22;16404;49.902;10.074;2023-05-10T07:50:30;19.40;62.70
29431;DHT22;16404;49.902;10.074;2023-05-10T07:53:15;19.50;62.30
29431;DHT22;16404;49.902;10.074;2023-05-10T07:56:19;19.50;62.30
29431;DHT22;16404;49.902;10.074;2023-05-10T07:59:03;19.60;62.20
29431;DHT22;16404;49.902;10.074;2023-05-10T08:01:49;19.60;61.60
29431;DHT22;16404;49.902;10.074;2023-05-10T08:04:33;19.70;61.70
29431;DHT22;16404;49.902;10.074;2023-05-10T08:07:18;19.70;61.60
29431;DHT22;16404;49.902;10.074;2023-05-10T08:10:03;19.80;61.40
29431;DHT22;16404;49.902;10.074;2023-05-10T08:12:48;19.90;61.30
29431;DHT22;16404;49.902;10.074;2023-05-10T08:15:32;20.00;61.20
29431;DHT22;16404;49.902;10.074;2023-05-10T08:18:17;20.20;60.30
29431;DHT22;16404;49.902;10.074;2023-05-10T08:21:02;20.30;60.00
29431;DHT22;16404;49.902;10.074;2023-05-10T08:23:46;20.40;59.50
29431;DHT22;16404;49.902;10.074;2023-05-10T08:26:32;20.60;58.90
29431;DHT22;16404;49.902;10.074;2023-05-10T08:29:16;20.60;58.60
29431;DHT22;16404;49.902;10.074;2023-05-10T08:32:01;20.60;58.40
29431;DHT22;16404;49.902;10.074;2023-05-10T08:34:46;20.60;57.90
29431;DHT22;16404;49.902;10.074;2023-05-10T08:37:30;20.60;58.00
29431;DHT22;16404;49.902;10.074;2023-05-10T08:40:16;20.80;58.20
29431;DHT22;16404;49.902;10.074;2023-05-10T08:43:08;20.90;57.80
29431;DHT22;16404;49.902;10.074;2023-05-10T08:45:54;21.10;57.40
29431;DHT22;16404;49.902;10.074;2023-05-10T08:48:39;21.30;57.20
29431;DHT22;16404;49.902;10.074;2023-05-10T08:51:26;21.40;56.60
29431;DHT22;16404;49.902;10.074;2023-05-10T08:54:12;21.50;55.80
29431;DHT22;16404;49.902;10.074;2023-05-10T08:56:57;21.40;55.30
29431;DHT22;16404;49.902;10.074;2023-05-10T08:59:41;21.50;55.60
29431;DHT22;16404;49.902;10.074;2023-05-10T09:02:26;21.60;55.20
29431;DHT22;16404;49.902;10.074;2023-05-10T09:05:11;21.60;55.00
29431;DHT22;16404;49.902;10.074;2023-05-10T09:07:57;21.70;55.10
29431;DHT22;16404;49.902;10.074;2023-05-10T09:10:45;21.60;54.60
29431;DHT22;16404;49.902;10.074;2023-05-10T09:13:32;21.60;54.90
29431;DHT22;16404;49.902;10.074;2023-05-10T09:16:16;21.60;54.10
29431;DHT22;16404;49.902;10.074;2023-05-10T09:19:00;21.70;54.40
29431;DHT22;16404;49.902;10.074;2023-05-10T09:21:45;21.70;53.70
29431;DHT22;16404;49.902;10.074;2023-05-10T09:24:30;21.70;53.90
29431;DHT22;16404;49.902;10.074;2023-05-10T09:27:15;21.80;54.20
29431;DHT22;16404;49.902;10.074;2023-05-10T09:29:59;21.90;54.00
29431;DHT22;16404;49.902;10.074;2023-05-10T09:32:45;22.00;53.40
29431;DHT22;16404;49.902;10.074;2023-05-10T09:35:32;22.30;53.10
29431;DHT22;16404;49.902;10.074;2023-05-10T09:38:16;22.50;52.30
29431;DHT22;16404;49.902;10.074;2023-05-10T09:41:01;22.70;52.20
29431;DHT22;16404;49.902;10.074;2023-05-10T09:43:47;22.90;52.70
29431;DHT22;16404;49.902;10.074;2023-05-10T09:46:35;23.00;51.60
29431;DHT22;16404;49.902;10.074;2023-05-10T09:49:21;23.00;50.80
29431;DHT22;16404;49.902;10.074;2023-05-10T09:52:07;23.00;51.00
29431;DHT22;16404;49.902;10.074;2023-05-10T09:54:54;23.10;50.50
29431;DHT22;16404;49.902;10.074;2023-05-10T09:57:39;23.10;50.10
29431;DHT22;16404;49.902;10.074;2023-05-10T10:00:25;23.10;50.10
29431;DHT22;16404;49.902;10.074;2023-05-10T10:03:15;23.00;50.10
29431;DHT22;16404;49.902;10.074;2023-05-10T10:06:00;23.00;50.20
29431;DHT22;16404;49.902;10.074;2023-05-10T10:08:45;23.00;50.50
29431;DHT22;16404;49.902;10.074;2023-05-10T10:11:30;23.20;50.40
29431;DHT22;16404;49.902;10.074;2023-05-10T10:14:17;23.40;49.80
29431;DHT22;16404;49.902;10.074;2023-05-10T10:17:02;23.60;49.50
29431;DHT22;16404;49.902;10.074;2023-05-10T10:19:48;23.70;49.30
29431;DHT22;16404;49.902;10.074;2023-05-10T10:22:33;23.90;49.30
29431;DHT22;16404;49.902;10.074;2023-05-10T10:25:18;23.90;48.60
29431;DHT22;16404;49.902;10.074;2023-05-10T10:31:03;24.10;48.60
29431;DHT22;16404;49.902;10.074;2023-05-10T10:36:49;24.40;47.30
29431;DHT22;16404;49.902;10.074;2023-05-10T10:39:33;24.50;47.50
29431;DHT22;16404;49.902;10.074;2023-05-10T10:42:46;24.70;47.80
29431;DHT22;16404;49.902;10.074;2023-05-10T10:45:31;24.80;46.50
29431;DHT22;16404;49.902;10.074;2023-05-10T10:48:21;25.00;46.60
29431;DHT22;16404;49.902;10.074;2023-05-10T10:51:06;25.10;46.00
29431;DHT22;16404;49.902;10.074;2023-05-10T10:53:50;25.10;46.10
29431;DHT22;16404;49.902;10.074;2023-05-10T10:56:35;25.30;45.00
29431;DHT22;16404;49.902;10.074;2023-05-10T10:59:27;25.50;45.00
29431;DHT22;16404;49.902;10.074;2023-05-10T11:08:32;25.20;44.60
29431;DHT22;16404;49.902;10.074;2023-05-10T11:11:17;25.10;44.10
29431;DHT22;16404;49.902;10.074;2023-05-10T11:14:06;25.00;44.20
29431;DHT22;16404;49.902;10.074;2023-05-10T11:16:51;25.00;44.20
29431;DHT22;16404;49.902;10.074;2023-05-10T11:19:36;25.00;44.50
29431;DHT22;16404;49.902;10.074;2023-05-10T11:22:25;25.00;44.70
29431;DHT22;16404;49.902;10.074;2023-05-10T11:25:09;25.10;44.60
29431;DHT22;16404;49.902;10.074;2023-05-10T11:27:54;25.10;44.30
29431;DHT22;16404;49.902;10.074;2023-05-10T11:30:40;25.10;43.20
29431;DHT22;16404;49.902;10.074;2023-05-10T11:33:24;25.10;43.40
29431;DHT22;16404;49.902;10.074;2023-05-10T11:36:14;25.20;42.90
29431;DHT22;16404;49.902;10.074;2023-05-10T11:38:58;25.20;43.50
29431;DHT22;16404;49.902;10.074;2023-05-10T11:41:43;25.30;43.60
29431;DHT22;16404;49.902;10.074;2023-05-10T11:44:32;25.30;43.50
29431;DHT22;16404;49.902;10.074;2023-05-10T11:47:17;25.30;43.40
29431;DHT22;16404;49.902;10.074;2023-05-10T11:50:01;25.40;43.70
29431;DHT22;16404;49.902;10.074;2023-05-10T11:52:51;25.50;43.80
29431;DHT22;16404;49.902;10.074;2023-05-10T11:55:35;25.70;43.20
29431;DHT22;16404;49.902;10.074;2023-05-10T11:58:20;25.90;43.30
29431;DHT22;16404;49.902;10.074;2023-05-10T12:01:05;25.90;43.40
29431;DHT22;16404;49.902;10.074;2023-05-10T12:03:52;26.00;43.70
29431;DHT22;16404;49.902;10.074;2023-05-10T12:06:40;26.00;43.70
29431;DHT22;16404;49.902;10.074;2023-05-10T12:09:25;25.70;43.40
29431;DHT22;16404;49.902;10.074;2023-05-10T12:12:10;25.70;43.70
29431;DHT22;16404;49.902;10.074;2023-05-10T12:14:54;25.60;43.50
29431;DHT22;16404;49.902;10.074;2023-05-10T12:17:39;25.60;43.80
29431;DHT22;16404;49.902;10.074;2023-05-10T12:20:27;25.40;43.00
29431;DHT22;16404;49.902;10.074;2023-05-10T12:23:11;25.30;42.70
29431;DHT22;16404;49.902;10.074;2023-05-10T12:26:02;25.40;43.20
29431;DHT22;16404;49.902;10.074;2023-05-10T12:28:48;25.30;42.70
29431;DHT22;16404;49.902;10.074;2023-05-10T12:31:32;25.10;42.60
29431;DHT22;16404;49.902;10.074;2023-05-10T12:34:31;25.10;42.80
29431;DHT22;16404;49.902;10.074;2023-05-10T12:37:15;25.10;43.20
29431;DHT22;16404;49.902;10.074;2023-05-10T12:40:00;25.20;42.80
29431;DHT22;16404;49.902;10.074;2023-05-10T12:42:44;25.20;43.00
29431;DHT22;16404;49.902;10.074;2023-05-10T12:45:29;25.40;43.30
29431;DHT22;16404;49.902;10.074;2023-05-10T12:48:14;25.40;43.30
29431;DHT22;16404;49.902;10.074;2023-05-10T12:50:59;25.40;43.10
29431;DHT22;16404;49.902;10.074;2023-05-10T12:53:44;25.40;42.90
29431;DHT22;16404;49.902;10.074;2023-05-10T12:56:30;25.50;42.90
29431;DHT22;16404;49.902;10.074;2023-05-10T12:59:14;25.60;42.70
29431;DHT22;16404;49.902;10.074;2023-05-10T13:01:59;25.70;42.90
29431;DHT22;16404;49.902;10.074;2023-05-10T13:04:47;25.80;43.00
29431;DHT22;16404;49.902;10.074;2023-05-10T13:07:32;25.90;42.70
29431;DHT22;16404;49.902;10.074;2023-05-10T13:10:16;26.00;43.00
29431;DHT22;16404;49.902;10.074;2023-05-10T13:13:01;25.90;42.50
29431;DHT22;16404;49.902;10.074;2023-05-10T13:15:46;25.80;42.00
29431;DHT22;16404;49.902;10.074;2023-05-10T13:18:31;25.70;42.10
29431;DHT22;16404;49.902;10.074;2023-05-10T13:21:15;25.60;41.60
29431;DHT22;16404;49.902;10.074;2023-05-10T13:24:00;25.50;41.60
29431;DHT22;16404;49.902;10.074;2023-05-10T13:26:45;25.40;42.00
29431;DHT22;16404;49.902;10.074;2023-05-10T13:29:29;25.10;42.00
29431;DHT22;16404;49.902;10.074;2023-05-10T13:32:14;24.70;42.40
29431;DHT22;16404;49.902;10.074;2023-05-10T13:34:59;24.50;43.40
29431;DHT22;16404;49.902;10.074;2023-05-10T13:37:43;24.20;44.40
29431;DHT22;16404;49.902;10.074;2023-05-10T13:40:28;24.00;45.40
29431;DHT22;16404;49.902;10.074;2023-05-10T13:43:12;23.80;46.10
29431;DHT22;16404;49.902;10.074;2023-05-10T13:45:57;23.60;46.50
29431;DHT22;16404;49.902;10.074;2023-05-10T13:48:42;23.30;47.60
29431;DHT22;16404;49.902;10.074;2023-05-10T13:51:27;23.20;48.30
29431;DHT22;16404;49.902;10.074;2023-05-10T13:54:11;23.00;48.80
29431;DHT22;16404;49.902;10.074;2023-05-10T13:56:56;23.00;48.80
29431;DHT22;16404;49.902;10.074;2023-05-10T13:59:40;22.90;49.10
29431;DHT22;16404;49.902;10.074;2023-05-10T14:02:25;22.80;49.30
29431;DHT22;16404;49.902;10.074;2023-05-10T14:05:11;22.70;49.20
29431;DHT22;16404;49.902;10.074;2023-05-10T14:07:55;22.60;48.90
29431;DHT22;16404;49.902;10.074;2023-05-10T14:10:40;22.40;48.90
29431;DHT22;16404;49.902;10.074;2023-05-10T14:13:25;22.30;49.30
29431;DHT22;16404;49.902;10.074;2023-05-10T14:16:09;22.20;49.30
29431;DHT22;16404;49.902;10.074;2023-05-10T14:18:54;22.10;49.80
29431;DHT22;16404;49.902;10.074;2023-05-10T14:21:38;22.00;49.80
29431;DHT22;16404;49.902;10.074;2023-05-10T14:24:23;21.90;49.90
29431;DHT22;16404;49.902;10.074;2023-05-10T14:27:08;21.90;49.90
29431;DHT22;16404;49.902;10.074;2023-05-10T14:29:52;21.80;50.00
29431;DHT22;16404;49.902;10.074;2023-05-10T14:32:37;21.80;50.20
29431;DHT22;16404;49.902;10.074;2023-05-10T14:35:22;21.70;50.40
29431;DHT22;16404;49.902;10.074;2023-05-10T14:38:07;21.70;50.60
29431;DHT22;16404;49.902;10.074;2023-05-10T14:40:51;21.80;50.60
29431;DHT22;16404;49.902;10.074;2023-05-10T14:43:36;21.90;50.40
29431;DHT22;16404;49.902;10.074;2023-05-10T14:46:20;21.80;49.90
29431;DHT22;16404;49.902;10.074;2023-05-10T14:49:05;21.70;49.80
29431;DHT22;16404;49.902;10.074;2023-05-10T14:51:50;21.60;49.80
29431;DHT22;16404;49.902;10.074;2023-05-10T14:54:35;21.70;49.50
29431;DHT22;16404;49.902;10.074;2023-05-10T14:57:19;21.60;49.40
29431;DHT22;16404;49.902;10.074;2023-05-10T15:00:04;21.60;49.10
29431;DHT22;16404;49.902;10.074;2023-05-10T15:02:49;21.60;49.40
29431;DHT22;16404;49.902;10.074;2023-05-10T15:05:33;21.60;49.50
29431;DHT22;16404;49.902;10.074;2023-05-10T15:08:18;21.70;49.50
29431;DHT22;16404;49.902;10.074;2023-05-10T15:11:02;21.70;49.80
29431;DHT22;16404;49.902;10.074;2023-05-10T15:13:47;21.70;50.00
29431;DHT22;16404;49.902;10.074;2023-05-10T15:16:32;21.80;50.20
29431;DHT22;16404;49.902;10.074;2023-05-10T15:19:16;21.70;50.40
29431;DHT22;16404;49.902;10.074;2023-05-10T15:22:02;21.70;50.80
29431;DHT22;16404;49.902;10.074;2023-05-10T15:24:46;21.60;50.90
29431;DHT22;16404;49.902;10.074;2023-05-10T15:27:30;21.60;50.80
29431;DHT22;16404;49.902;10.074;2023-05-10T15:30:15;21.50;51.00
29431;DHT22;16404;49.902;10.074;2023-05-10T15:32:59;21.40;51.30
29431;DHT22;16404;49.902;10.074;2023-05-10T15:35:44;21.40;51.80
29431;DHT22;16404;49.902;10.074;2023-05-10T15:38:29;21.40;51.90
29431;DHT22;16404;49.902;10.074;2023-05-10T15:41:13;21.40;52.30
29431;DHT22;16404;49.902;10.074;2023-05-10T15:43:58;21.40;52.70
29431;DHT22;16404;49.902;10.074;2023-05-10T15:46:44;21.40;53.20
29431;DHT22;16404;49.902;10.074;2023-05-10T15:49:29;21.50;53.80
29431;DHT22;16404;49.902;10.074;2023-05-10T15:52:13;21.50;53.20
29431;DHT22;16404;49.902;10.074;2023-05-10T15:54:58;21.40;53.30
29431;DHT22;16404;49.902;10.074;2023-05-10T15:57:43;21.30;54.00
29431;DHT22;16404;49.902;10.074;2023-05-10T16:00:27;21.10;54.30
29431;DHT22;16404;49.902;10.074;2023-05-10T16:03:12;21.10;54.00
29431;DHT22;16404;49.902;10.074;2023-05-10T16:05:57;21.00;54.30
29431;DHT22;16404;49.902;10.074;2023-05-10T16:08:41;21.00;54.80
29431;DHT22;16404;49.902;10.074;2023-05-10T16:11:26;21.00;55.00
29431;DHT22;16404;49.902;10.074;2023-05-10T16:14:10;21.00;55.30
29431;DHT22;16404;49.902;10.074;2023-05-10T16:16:55;20.90;55.40
29431;DHT22;16404;49.902;10.074;2023-05-10T16:19:40;20.90;56.00
29431;DHT22;16404;49.902;10.074;2023-05-10T16:22:25;20.90;56.20
29431;DHT22;16404;49.902;10.074;2023-05-10T16:25:13;20.80;56.50
29431;DHT22;16404;49.902;10.074;2023-05-10T16:27:58;20.80;56.90
29431;DHT22;16404;49.902;10.074;2023-05-10T16:30:43;20.70;57.30
29431;DHT22;16404;49.902;10.074;2023-05-10T16:33:27;20.70;57.80
29431;DHT22;16404;49.902;10.074;2023-05-10T16:36:12;20.60;58.30
29431;DHT22;16404;49.902;10.074;2023-05-10T16:38:57;20.60;58.80
29431;DHT22;16404;49.902;10.074;2023-05-10T16:41:42;20.70;58.90
29431;DHT22;16404;49.902;10.074;2023-05-10T16:44:26;20.80;58.10
29431;DHT22;16404;49.902;10.074;2023-05-10T16:47:11;20.70;58.10
29431;DHT22;16404;49.902;10.074;2023-05-10T16:49:56;20.60;58.90
29431;DHT22;16404;49.902;10.074;2023-05-10T16:52:40;20.50;59.40
29431;DHT22;16404;49.902;10.074;2023-05-10T16:55:25;20.30;59.70
29431;DHT22;16404;49.902;10.074;2023-05-10T16:58:09;20.20;59.90
29431;DHT22;16404;49.902;10.074;2023-05-10T17:00:54;20.20;59.90
29431;DHT22;16404;49.902;10.074;2023-05-10T17:03:38;20.20;59.80
29431;DHT22;16404;49.902;10.074;2023-05-10T17:06:23;20.20;60.20
29431;DHT22;16404;49.902;10.074;2023-05-10T17:09:08;20.20;60.50
29431;DHT22;16404;49.902;10.074;2023-05-10T17:11:52;20.20;60.30
29431;DHT22;16404;49.902;10.074;2023-05-10T17:14:37;20.10;60.30
29431;DHT22;16404;49.902;10.074;2023-05-10T17:17:21;20.10;60.60
29431;DHT22;16404;49.902;10.074;2023-05-10T17:20:07;20.10;60.00
29431;DHT22;16404;49.902;10.074;2023-05-10T17:22:52;20.10;59.90
29431;DHT22;16404;49.902;10.074;2023-05-10T17:25:37;20.10;59.60
29431;DHT22;16404;49.902;10.074;2023-05-10T17:28:22;20.10;59.60
29431;DHT22;16404;49.902;10.074;2023-05-10T17:31:06;20.00;59.90
29431;DHT22;16404;49.902;10.074;2023-05-10T17:33:51;20.00;60.30
29431;DHT22;16404;49.902;10.074;2023-05-10T17:36:36;20.10;60.30
29431;DHT22;16404;49.902;10.074;2023-05-10T17:39:20;20.20;59.90
29431;DHT22;16404;49.902;10.074;2023-05-10T17:42:05;20.20;59.90
29431;DHT22;16404;49.902;10.074;2023-05-10T17:44:50;20.10;60.00
29431;DHT22;16404;49.902;10.074;2023-05-10T17:47:34;20.30;59.70
29431;DHT22;16404;49.902;10.074;2023-05-10T17:50:19;20.20;59.60